INFORMACIÓN METAR y TAF
METAR FOR LECO
ADDS - METARS form results

(0952 UTC 09 March 2021)
Data provider http://aviationweather.gov/metar/data/
 
METAR text: LECO 090930Z VRB02KT CAVOK 08/04 Q1024 NOSIG
Conditions at: LECO (LA CORUNA/ALVEDR, ES) observed 0930 UTC 09 March 2021
Temperature: 8.0°C (46°F)
Dewpoint: 4.0°C (39°F) [RH = 76%]
Pressure (altimeter): 30.24 inches Hg (1024.0 mb)
Winds: variable direction winds at 2 MPH (2 knots; 1.0 m/s)
Visibility: 6 or more miles (10+ km)
Ceiling: ceiling and visibility are OK
Clouds: unknown
Weather: no significant weather observed at this time

METAR text: LECO 090900Z VRB02KT CAVOK 06/04 Q1024 NOSIG
Conditions at: LECO (LA CORUNA/ALVEDR, ES) observed 0900 UTC 09 March 2021
Temperature: 6.0°C (43°F)
Dewpoint: 4.0°C (39°F) [RH = 87%]
Pressure (altimeter): 30.24 inches Hg (1024.0 mb)
Winds: variable direction winds at 2 MPH (2 knots; 1.0 m/s)
Visibility: 6 or more miles (10+ km)
Ceiling: ceiling and visibility are OK
Clouds: unknown
Weather: no significant weather observed at this time

Forecast for: LECO (LA CORUNA/ALVEDR, ES)
Text: TAF LECO 090800Z 0909/1009 01008KT 9999 FEW035 TX12/0914Z TN03/1004Z
Forecast period: 0900 UTC 09 March 2021 to 0900 UTC 10 March 2021
Forecast type: FROM: standard forecast or significant change
Winds: from the N (10 degrees) at 9 MPH (8 knots; 4.1 m/s)
Visibility: 6 or more miles (10+ km)
Ceiling: at least 12,000 feet AGL
Clouds: few clouds at 3500 feet AGL
Weather: no significant weather forecast for this period

 MAPA DE AEROPUERTO

 INFORMACIÓN DE PISTA
Pista 03 Longitud 6358 ft Ancho 148 ft
Elevación 327 ft Umbral desplazado 0 ft Rumbo de pista 31
Pista 21 Longitud 6358 ft Ancho 148 ft
Elevación 286 ft Umbral desplazado 0 ft Rumbo de pista 211

 FRECUANCIAS DEL AEROPUERTO
Tipo APP Nombre SANTIAGO A Frecuencia 120.2 MHZ
Tipo GND Nombre GND Frecuencia 121.7 MHZ
Tipo TWR Nombre A Coruña T Frecuencia 118.3 MHZ

 RADIO AYUDAS DEL AEROPUERTO
Tipo NDB Nombre La Coruna Frecuencia 401 KHZ
Tipo VOR-DME Nombre La Coruna Frecuencia 115100 KHZ



Powered by Virtual Airlines Manager [v2.6.2]